Eeklo, Belgium
Current Conditions -  °F | °C
As of 11:25 PM on Sunday 25 Jan 2015 (Local Time) from EHFS Reporting Station
Overcast Overcast  
Wind Chill: 33°   Ceiling: 2300
Heat Index: 41°   Visibility: 6mi
Dew Point: 39°   Wind: 14mph
Humidity: 93%   Direction: 200°SSW
Pressure: 30.3"   Gusts: NA
Location:  51.19°N, 3.56°E
Report Text: EHFS 252225Z AUTO 20012KT 9999 BKN023/// OVC026/// 05/04 Q1026
Loading
Personal Weather Stations






























Interactive Weather Map New forecast layout! Learn more

10-Day Weather Forecast

Advertisements
Track Severe Weather on mobile